Monday, February 18, 2019, 10:19 AM GMT
Back to Local

CYQM, Moncton, N. B.

Location: , , Canada Lat: 46.117
Local Time: 10:19 AM GMT (10:19 GMT) Lon: -64.683
Time Zone: GMT Elev: 232 ft

Show me the last for .
Show Decoded

2019-02-18 10:00 METAR CYQM 181000Z 26006KT 15SM SKC M15/M19 A2999 RMK SLP163 =
2019-02-18 09:00 METAR CYQM 180900Z 26007KT 15SM SKC M14/M19 A2999 RMK SLP162 =
2019-02-18 08:00 METAR CYQM 180800Z 25007KT 15SM FEW150 FEW250 M14/M18 A2999 RMK AS1CI1 AS TR
                 SLP163 =
2019-02-18 07:00 METAR CYQM 180700Z 24009KT 15SM FEW140 SCT250 M13/M18 A3000 RMK AS2CI1 SLP167 =
2019-02-18 06:00 METAR CYQM 180600Z 23006KT 15SM FEW150 FEW250 M12/M18 A3000 RMK AC1CI1 SLP167 =
2019-02-18 05:00 METAR CYQM 180500Z 29006KT 15SM FEW150 BKN190 M11/M18 A3001 RMK AC1AC5 AC TR
                 SLP168 =
2019-02-18 04:00 METAR CYQM 180400Z CCA 28008KT 15SM FEW130 FEW170 FEW240 M11/M18 A3000 RMK
                 AC1AC1CI1 AC TR SLP167 =
2019-02-18 03:00 METAR CYQM 180300Z 29010G15KT 15SM SCT200 BKN240 M10/M18 A2997 RMK CS4CI1 SLP157
                 =
2019-02-18 02:00 METAR CYQM 180200Z 28011KT 15SM FEW220 M10/M18 A2999 RMK CI2 SLP162 =
2019-02-18 01:00 METAR CYQM 180100Z 27011KT 15SM SCT210 BKN240 M09/M17 A3001 RMK CI4CI1 SLP169 =
2019-02-18 00:00 METAR CYQM 180000Z 27010KT 15SM FEW210 BKN240 M08/M16 A2999 RMK CI1CI4 SLP164 =
2019-02-17 23:00 METAR CYQM 172300Z 27009KT 15SM FEW240 M07/M16 A2998 RMK CI2 SLP158 =
2019-02-17 22:00 METAR CYQM 172200Z 28008KT 15SM FEW240 M06/M16 A2994 RMK CI1 SLP145 =
2019-02-17 21:00 METAR CYQM 172100Z 28013KT 15SM FEW220 M05/M16 A2993 RMK CI1 CI TR SLP140 =
2019-02-17 20:00 METAR CYQM 172000Z 28012G19KT 15SM FEW150 FEW220 M05/M16 A2992 RMK AC1CI1 AC TR
                 SLP137 =
2019-02-17 19:00 METAR CYQM 171900Z 29011G19KT 15SM FEW220 M05/M16 A2990 RMK CI1 CI TR SLP133 =
2019-02-17 18:00 METAR CYQM 171800Z 28011G18KT 15SM FEW220 M05/M16 A2991 RMK CI1 CI TR SLP133 =
2019-02-17 17:00 METAR CYQM 171700Z 26010G19KT 220V280 15SM FEW220 M06/M16 A2992 RMK CI1 CI TR
                 SLP138 =
2019-02-17 16:00 METAR CYQM 171600Z 26012KT 15SM SKC M07/M15 A2993 RMK SLP142 =
2019-02-17 15:00 METAR CYQM 171500Z 26012G18KT 15SM FEW025 M08/M15 A2992 RMK CU1 CU TR SLP138 =
2019-02-17 14:00 METAR CYQM 171400Z 26015KT 15SM FEW025 M09/M15 A2990 RMK CU1 CU TR SLP132 =
2019-02-17 13:00 METAR CYQM 171300Z 25012KT 15SM FEW020 FEW250 M10/M15 A2990 RMK CU1CI1 CU TR CI
                 TR SLP132 =
2019-02-17 12:00 METAR CYQM 171200Z 26014G22KT 15SM FEW020 FEW220 M10/M15 A2989 RMK SC1CI1 SC TR
                 CI TR SLP128 =
2019-02-17 11:00 METAR CYQM 171100Z 26015G20KT 15SM FEW020 FEW220 M10/M15 A2985 RMK SC1CI1 SC TR
                 SLP115 =

Support USWX by starting your Amazon purchase here.